Time;durP1;ratioP1;P1;durP2;ratioP2;P2;SDS_P1;SDS_P2;PMS_P1;PMS_P2;Temp;Humidity;BMP_temperature;BMP_pressure;BME280_temperature;BME280_humidity;BME280_pressure;Samples;Min_cycle;Max_cycle;Signal;HPM_P1;HPM_P2
2024/03/30 00:00:49;;;;;;;11.10;4.60;;;17.20;55.30;;;;;;5012070;28;20453;-57
2024/03/30 00:03:15;;;;;;;6.33;3.80;;;17.20;55.40;;;;;;5013208;28;20432;-54
2024/03/30 00:05:41;;;;;;;7.60;4.93;;;17.20;55.50;;;;;;5011874;28;20560;-59
2024/03/30 00:08:10;;;;;;;10.33;4.50;;;17.10;55.40;;;;;;5012729;28;20202;-59
2024/03/30 00:10:36;;;;;;;9.30;3.77;;;17.10;55.50;;;;;;5011708;28;20177;-56
2024/03/30 00:13:04;;;;;;;5.87;5.00;;;17.10;55.40;;;;;;5012434;28;20447;-58
2024/03/30 00:15:31;;;;;;;7.67;4.73;;;17.00;55.40;;;;;;5011580;28;20469;-58
2024/03/30 00:17:58;;;;;;;6.73;3.93;;;17.00;55.40;;;;;;5012275;28;20467;-59
2024/03/30 00:20:23;;;;;;;7.67;3.70;;;17.00;55.40;;;;;;5012227;28;20506;-58
2024/03/30 00:22:52;;;;;;;6.47;4.23;;;17.00;55.40;;;;;;5013105;28;20523;-57
2024/03/30 00:25:18;;;;;;;9.13;4.60;;;16.90;55.50;;;;;;5012120;28;20742;-56
2024/03/30 00:27:44;;;;;;;6.87;3.70;;;16.90;55.80;;;;;;5012241;28;20421;-56
2024/03/30 00:30:09;;;;;;;9.70;5.80;;;16.90;56.00;;;;;;5011244;28;20190;-56
2024/03/30 00:32:35;;;;;;;9.33;4.60;;;16.80;56.30;;;;;;5012778;28;20551;-57
2024/03/30 00:35:01;;;;;;;10.53;6.13;;;16.80;56.00;;;;;;5011048;28;20298;-58
2024/03/30 00:37:27;;;;;;;12.20;5.07;;;16.90;56.00;;;;;;5012590;28;20644;-57
2024/03/30 00:39:52;;;;;;;8.70;4.93;;;16.90;56.10;;;;;;5011175;28;20499;-58
2024/03/30 00:42:18;;;;;;;10.90;4.90;;;16.90;56.10;;;;;;5012668;28;20247;-57
2024/03/30 00:44:44;;;;;;;8.63;4.80;;;16.90;56.20;;;;;;5010836;28;20181;-58
2024/03/30 00:47:09;;;;;;;12.07;5.70;;;16.90;56.30;;;;;;5011615;28;20224;-58
2024/03/30 00:49:35;;;;;;;8.77;5.10;;;16.90;56.20;;;;;;5011832;28;20185;-57
2024/03/30 00:52:00;;;;;;;11.23;5.40;;;16.90;56.20;;;;;;5011839;28;20668;-57
2024/03/30 00:54:26;;;;;;;8.87;5.00;;;16.90;56.10;;;;;;5011558;28;20673;-55
2024/03/30 00:56:51;;;;;;;8.40;4.90;;;16.90;55.90;;;;;;5011648;28;20765;-58
2024/03/30 00:59:17;;;;;;;11.70;5.17;;;16.90;55.90;;;;;;5011377;28;20712;-58
2024/03/30 01:01:42;;;;;;;7.13;4.67;;;16.90;55.90;;;;;;5011607;28;20177;-57
2024/03/30 01:04:08;;;;;;;11.43;5.20;;;16.90;55.90;;;;;;5011153;28;20665;-57
2024/03/30 01:06:34;;;;;;;7.40;4.90;;;16.80;55.80;;;;;;5012068;28;20225;-58
2024/03/30 01:08:59;;;;;;;9.60;5.30;;;16.80;55.70;;;;;;5010462;28;20398;-57
2024/03/30 01:11:25;;;;;;;7.13;4.80;;;16.70;55.80;;;;;;5011725;28;20556;-58
2024/03/30 01:13:51;;;;;;;7.73;4.70;;;16.70;55.90;;;;;;5011020;28;20181;-58
2024/03/30 01:16:18;;;;;;;8.80;5.40;;;16.70;55.90;;;;;;5011557;28;20508;-58
2024/03/30 01:18:44;;;;;;;6.80;5.00;;;16.60;55.90;;;;;;5003057;28;20880;-58
2024/03/30 01:21:10;;;;;;;12.27;5.47;;;16.60;56.00;;;;;;5011365;28;20939;-57
2024/03/30 01:23:36;;;;;;;6.40;5.00;;;16.60;56.10;;;;;;5011184;28;20416;-57
2024/03/30 01:26:02;;;;;;;9.43;4.57;;;16.60;56.10;;;;;;5010779;28;20478;-57
2024/03/30 01:28:28;;;;;;;8.87;5.07;;;16.60;56.20;;;;;;5010524;28;20996;-57
2024/03/30 01:30:54;;;;;;;8.93;4.60;;;16.50;56.30;;;;;;5010601;28;20432;-57
2024/03/30 01:33:20;;;;;;;7.63;4.70;;;16.50;56.30;;;;;;5012020;28;20444;-57
2024/03/30 01:35:45;;;;;;;10.97;5.03;;;16.50;56.30;;;;;;5010086;28;20248;-58
2024/03/30 01:38:11;;;;;;;9.53;5.40;;;16.50;56.30;;;;;;5010876;28;20698;-57
2024/03/30 01:40:38;;;;;;;18.03;6.37;;;16.50;56.50;;;;;;5010886;28;20653;-56
2024/03/30 01:43:04;;;;;;;14.17;5.30;;;16.40;56.50;;;;;;5011586;28;20181;-58
2024/03/30 01:45:35;;;;;;;9.07;5.03;;;16.40;56.40;;;;;;5010460;28;20967;-57
2024/03/30 01:48:03;;;;;;;12.50;5.70;;;16.40;57.10;;;;;;5010935;28;20264;-57
2024/03/30 01:50:31;;;;;;;14.13;5.47;;;16.40;56.60;;;;;;5010596;28;20933;-55
2024/03/30 01:52:59;;;;;;;13.97;5.63;;;16.40;56.60;;;;;;5011361;28;20428;-58
2024/03/30 01:55:25;;;;;;;19.73;4.80;;;16.30;56.60;;;;;;5010674;28;20516;-58
2024/03/30 01:57:52;;;;;;;13.77;5.13;;;16.30;56.50;;;;;;5010441;28;20618;-57
2024/03/30 02:00:18;;;;;;;16.03;5.60;;;16.40;56.50;;;;;;5010380;28;20454;-58
2024/03/30 02:02:45;;;;;;;16.37;5.80;;;16.30;56.30;;;;;;5004704;28;20500;-58
2024/03/30 02:05:12;;;;;;;14.87;5.50;;;16.30;56.40;;;;;;5010046;28;20902;-58
2024/03/30 02:07:38;;;;;;;22.63;6.27;;;16.30;56.30;;;;;;5010750;28;20452;-56
2024/03/30 02:10:04;;;;;;;21.83;6.17;;;16.30;56.30;;;;;;5009546;28;20432;-58
2024/03/30 02:12:31;;;;;;;18.80;6.73;;;16.30;56.00;;;;;;5011358;28;20425;-58
2024/03/30 02:14:57;;;;;;;23.20;7.17;;;16.30;55.80;;;;;;5010041;28;20190;-58
2024/03/30 02:17:23;;;;;;;23.27;6.07;;;16.30;55.70;;;;;;5011174;28;20589;-58
2024/03/30 02:19:48;;;;;;;20.20;6.33;;;16.30;55.40;;;;;;5009767;28;20996;-57
2024/03/30 02:22:18;;;;;;;24.13;6.00;;;16.00;54.50;;;;;;5010934;28;20190;-59
2024/03/30 02:24:44;;;;;;;24.20;6.27;;;16.10;54.60;;;;;;5002656;28;20206;-58
2024/03/30 02:27:10;;;;;;;34.23;7.73;;;16.30;53.80;;;;;;5010828;28;20440;-58
2024/03/30 02:29:37;;;;;;;26.27;6.17;;;16.30;53.40;;;;;;5010505;28;20428;-56
2024/03/30 02:32:04;;;;;;;17.87;5.93;;;16.50;52.10;;;;;;5010408;28;20193;-58
2024/03/30 02:34:30;;;;;;;42.53;9.20;;;16.60;50.90;;;;;;5010427;28;20427;-58
2024/03/30 02:36:55;;;;;;;21.23;6.20;;;16.70;50.40;;;;;;5009985;28;20464;-55
2024/03/30 02:39:21;;;;;;;29.27;7.07;;;16.90;49.90;;;;;;5012637;28;20181;-59
2024/03/30 02:41:47;;;;;;;27.70;7.13;;;17.00;49.60;;;;;;5014194;28;20187;-58
2024/03/30 02:44:12;;;;;;;38.27;7.13;;;17.20;49.30;;;;;;5013297;28;20186;-56
2024/03/30 02:46:38;;;;;;;24.30;7.00;;;17.20;48.40;;;;;;5014601;28;20226;-56
2024/03/30 02:49:03;;;;;;;37.43;6.73;;;17.30;48.20;;;;;;5013236;28;20279;-58
2024/03/30 02:51:29;;;;;;;35.17;7.50;;;17.30;48.00;;;;;;5014721;28;20552;-59
2024/03/30 02:53:54;;;;;;;24.73;5.93;;;17.30;47.50;;;;;;5013326;28;20244;-58
2024/03/30 02:56:21;;;;;;;30.83;5.93;;;17.20;47.20;;;;;;5013192;28;20214;-58
2024/03/30 02:58:47;;;;;;;29.53;6.50;;;17.30;47.50;;;;;;5012952;28;20197;-59
2024/03/30 03:01:12;;;;;;;35.07;9.83;;;17.30;47.70;;;;;;5013957;28;20416;-59
2024/03/30 03:03:38;;;;;;;42.33;8.30;;;17.40;46.80;;;;;;5014019;28;20236;-58
2024/03/30 03:06:04;;;;;;;33.40;7.77;;;17.40;45.50;;;;;;5013458;28;20277;-57
2024/03/30 03:08:29;;;;;;;22.17;5.60;;;17.50;45.20;;;;;;5013834;28;20186;-59
2024/03/30 03:10:55;;;;;;;22.43;5.63;;;17.60;45.00;;;;;;5012611;28;20178;-59
2024/03/30 03:13:21;;;;;;;24.13;5.60;;;17.60;44.40;;;;;;5014337;28;20185;-59
2024/03/30 03:15:46;;;;;;;28.83;6.07;;;17.60;44.20;;;;;;5012715;28;20217;-59
2024/03/30 03:18:13;;;;;;;34.87;6.53;;;17.60;42.80;;;;;;5013467;28;20260;-59
2024/03/30 03:20:40;;;;;;;28.97;4.70;;;17.70;43.10;;;;;;5012974;28;20842;-59
2024/03/30 03:23:06;;;;;;;28.13;4.60;;;17.80;42.80;;;;;;5013571;28;20221;-55
2024/03/30 03:25:31;;;;;;;28.40;6.13;;;17.90;42.00;;;;;;5013234;28;20476;-59
2024/03/30 03:27:57;;;;;;;31.77;5.80;;;17.90;41.60;;;;;;5009944;28;20688;-59
2024/03/30 03:30:23;;;;;;;34.40;6.23;;;17.90;41.50;;;;;;5010887;28;20440;-59
2024/03/30 03:32:48;;;;;;;26.00;4.93;;;18.00;41.60;;;;;;5013159;28;20205;-59
2024/03/30 03:35:14;;;;;;;28.87;6.60;;;18.10;41.00;;;;;;5012779;28;20264;-57
2024/03/30 03:37:40;;;;;;;26.07;5.10;;;18.10;40.70;;;;;;5012673;28;20214;-59
2024/03/30 03:40:06;;;;;;;26.80;4.17;;;18.20;40.30;;;;;;5012016;28;20181;-57
2024/03/30 03:42:32;;;;;;;18.10;4.70;;;18.20;39.60;;;;;;5013796;28;20192;-59
2024/03/30 03:44:58;;;;;;;26.63;4.97;;;18.30;39.20;;;;;;5012383;28;20444;-59
2024/03/30 03:47:23;;;;;;;36.20;5.60;;;18.20;39.20;;;;;;5012745;28;20735;-59
2024/03/30 03:49:49;;;;;;;23.30;4.43;;;18.20;39.80;;;;;;5011054;28;20178;-57
2024/03/30 03:52:14;;;;;;;32.63;5.13;;;18.10;39.00;;;;;;5013075;28;20276;-56
2024/03/30 03:54:40;;;;;;;20.53;4.33;;;18.30;38.50;;;;;;5012529;28;20704;-57
2024/03/30 03:57:05;;;;;;;26.07;6.20;;;18.50;39.00;;;;;;5011939;28;20229;-58
2024/03/30 03:59:31;;;;;;;25.57;4.50;;;18.60;38.80;;;;;;5012312;28;20186;-58
2024/03/30 04:01:56;;;;;;;23.93;6.90;;;18.80;38.70;;;;;;5012271;28;20192;-56
2024/03/30 04:04:23;;;;;;;17.93;3.83;;;18.70;36.70;;;;;;5012649;28;20348;-58
2024/03/30 04:06:49;;;;;;;27.90;4.00;;;18.80;37.70;;;;;;5011417;28;20297;-56
2024/03/30 04:09:17;;;;;;;18.00;5.27;;;18.90;37.30;;;;;;5011427;28;20866;-58
2024/03/30 04:11:43;;;;;;;16.30;3.70;;;19.00;37.20;;;;;;5012359;28;20193;-58
2024/03/30 04:14:08;;;;;;;14.33;4.57;;;19.10;37.20;;;;;;5011897;28;20413;-56
2024/03/30 04:16:34;;;;;;;11.73;4.63;;;19.20;36.90;;;;;;5012691;28;20231;-59
2024/03/30 04:19:00;;;;;;;18.70;4.30;;;19.20;37.50;;;;;;5010750;28;20658;-57
2024/03/30 04:21:27;;;;;;;17.33;4.63;;;19.30;38.50;;;;;;5012000;28;20186;-57
2024/03/30 04:23:53;;;;;;;23.23;4.23;;;19.40;37.30;;;;;;5011763;28;20227;-58
2024/03/30 04:26:19;;;;;;;30.47;5.10;;;19.40;36.00;;;;;;5012547;28;20444;-58
2024/03/30 04:28:45;;;;;;;20.13;4.43;;;19.40;38.30;;;;;;5010309;28;20182;-59
2024/03/30 04:31:11;;;;;;;16.53;4.07;;;19.30;36.30;;;;;;5011761;28;20448;-57
2024/03/30 04:33:37;;;;;;;24.37;4.27;;;19.30;37.00;;;;;;5012131;28;20420;-59
2024/03/30 04:36:05;;;;;;;18.10;3.47;;;19.40;37.90;;;;;;5011746;28;20479;-55
2024/03/30 04:38:33;;;;;;;26.30;5.50;;;19.40;38.30;;;;;;5011516;28;20190;-57
2024/03/30 04:41:07;;;;;;;12.60;3.20;;;19.40;38.40;;;;;;5011469;28;20955;-56
2024/03/30 04:43:35;;;;;;;26.20;3.83;;;19.40;37.50;;;;;;5011153;28;22157;-58
2024/03/30 04:46:02;;;;;;;14.90;3.90;;;19.20;36.80;;;;;;5011647;28;20456;-56
2024/03/30 04:48:30;;;;;;;15.70;4.57;;;19.10;37.30;;;;;;5011289;28;20436;-59
2024/03/30 04:50:56;;;;;;;15.87;3.60;;;19.10;37.70;;;;;;5011347;28;20802;-56
2024/03/30 04:53:25;;;;;;;17.33;3.20;;;19.20;37.90;;;;;;5012173;28;20441;-58
2024/03/30 04:55:51;;;;;;;21.33;4.70;;;19.30;38.10;;;;;;5011421;28;20563;-58
2024/03/30 04:58:19;;;;;;;12.73;3.27;;;19.30;37.60;;;;;;5011039;28;21083;-58
2024/03/30 05:00:44;;;;;;;16.30;3.57;;;19.30;37.10;;;;;;5003979;28;20771;-58
2024/03/30 05:03:10;;;;;;;20.73;5.03;;;19.30;37.20;;;;;;5011406;28;20451;-58
2024/03/30 05:05:35;;;;;;;12.60;3.77;;;19.30;37.30;;;;;;5011697;28;20594;-57
2024/03/30 05:08:01;;;;;;;23.27;3.73;;;19.20;37.30;;;;;;5010946;28;20209;-56
2024/03/30 05:10:26;;;;;;;9.70;3.70;;;19.20;37.10;;;;;;5010997;28;20269;-58
2024/03/30 05:12:52;;;;;;;15.17;4.50;;;19.30;38.80;;;;;;5011201;28;20182;-58
2024/03/30 05:15:17;;;;;;;11.47;3.93;;;19.30;39.70;;;;;;5011187;28;20190;-56
2024/03/30 05:17:43;;;;;;;18.03;4.50;;;19.40;38.50;;;;;;5010386;28;20252;-58
2024/03/30 05:22:53;;;;;;;13.23;2.90;;;19.30;37.10;;;;;;5011397;28;21143;-58
2024/03/30 05:25:19;;;;;;;15.03;4.00;;;19.10;37.10;;;;;;5011060;28;20445;-56
2024/03/30 05:27:44;;;;;;;17.83;3.87;;;18.90;37.30;;;;;;5010323;28;20202;-56
2024/03/30 05:30:12;;;;;;;20.07;3.70;;;19.10;37.70;;;;;;5010151;28;20661;-57
2024/03/30 05:32:37;;;;;;;14.23;3.20;;;19.10;37.30;;;;;;5011671;28;20216;-55
2024/03/30 05:35:03;;;;;;;17.83;4.10;;;19.10;35.90;;;;;;5010429;28;20440;-58
2024/03/30 05:37:29;;;;;;;17.10;3.47;;;19.10;36.20;;;;;;5010910;28;20214;-59
2024/03/30 05:39:54;;;;;;;16.53;3.83;;;19.20;36.40;;;;;;5010049;28;20721;-58
2024/03/30 05:42:20;;;;;;;14.03;3.50;;;19.20;36.10;;;;;;5011580;28;20581;-57
2024/03/30 05:44:50;;;;;;;12.07;3.47;;;19.30;36.10;;;;;;5010383;28;20711;-58
2024/03/30 05:47:15;;;;;;;26.47;6.10;;;19.30;36.70;;;;;;5010419;28;20237;-58
2024/03/30 05:49:41;;;;;;;15.93;3.37;;;19.40;36.80;;;;;;5010322;28;20437;-57
2024/03/30 05:52:06;;;;;;;27.20;5.73;;;19.40;36.70;;;;;;5011063;28;20186;-56
2024/03/30 05:54:32;;;;;;;18.40;4.83;;;19.30;36.30;;;;;;5010475;28;20677;-58
2024/03/30 05:56:57;;;;;;;22.00;4.03;;;19.40;36.40;;;;;;5010309;28;20953;-60
2024/03/30 05:59:23;;;;;;;15.80;3.60;;;19.30;36.20;;;;;;5010304;28;20244;-58
2024/03/30 06:01:48;;;;;;;23.27;3.80;;;19.30;36.70;;;;;;5010721;28;20178;-59
2024/03/30 06:04:14;;;;;;;19.93;3.70;;;19.40;36.60;;;;;;5010482;28;20269;-59
2024/03/30 06:06:39;;;;;;;18.47;4.40;;;19.40;37.20;;;;;;5010680;28;20878;-59
2024/03/30 06:09:05;;;;;;;17.37;4.33;;;19.40;36.70;;;;;;5009840;28;20273;-58
2024/03/30 06:11:31;;;;;;;13.33;3.40;;;19.30;37.40;;;;;;5011396;28;20194;-60
2024/03/30 06:13:57;;;;;;;22.00;4.13;;;19.50;37.10;;;;;;5011987;28;20862;-58
2024/03/30 06:16:22;;;;;;;16.67;2.80;;;19.50;36.90;;;;;;5014782;28;20667;-59
2024/03/30 06:18:48;;;;;;;20.23;4.67;;;19.60;37.60;;;;;;5013114;28;20182;-59
2024/03/30 06:21:15;;;;;;;19.87;4.30;;;19.80;37.60;;;;;;5014217;28;20197;-59
2024/03/30 06:23:41;;;;;;;21.47;4.20;;;19.80;35.90;;;;;;5014391;28;20608;-58
2024/03/30 06:26:06;;;;;;;17.70;3.33;;;19.80;35.90;;;;;;5014285;28;20452;-63
2024/03/30 06:28:32;;;;;;;21.07;4.30;;;20.00;35.70;;;;;;5013900;28;20551;-59
2024/03/30 06:31:00;;;;;;;18.47;4.13;;;20.10;36.00;;;;;;5013870;28;20287;-58
2024/03/30 06:33:27;;;;;;;20.77;4.30;;;20.20;36.40;;;;;;5014214;28;20677;-57
2024/03/30 06:35:55;;;;;;;18.90;4.30;;;20.00;39.30;;;;;;5013921;28;20476;-57
2024/03/30 06:38:21;;;;;;;15.40;3.47;;;20.10;37.00;;;;;;5013687;28;20520;-56
2024/03/30 06:43:44;;;;;;;18.53;3.80;;;20.30;35.30;;;;;;5014600;28;20236;-61
2024/03/30 06:46:10;;;;;;;10.90;4.13;;;20.50;35.80;;;;;;5013800;28;20436;-60
2024/03/30 06:48:37;;;;;;;19.17;4.33;;;20.60;37.50;;;;;;5012901;28;20511;-61
2024/03/30 06:51:03;;;;;;;19.87;5.10;;;20.80;37.30;;;;;;5013669;28;20452;-57
2024/03/30 06:53:28;;;;;;;22.30;3.57;;;20.80;37.10;;;;;;5013775;28;20425;-58
2024/03/30 06:55:55;;;;;;;21.93;5.10;;;20.90;36.40;;;;;;5013592;28;20476;-59
2024/03/30 06:58:21;;;;;;;23.70;4.47;;;21.00;34.30;;;;;;5013247;28;20217;-65
2024/03/30 07:00:48;;;;;;;16.90;4.57;;;21.10;35.30;;;;;;5012791;28;20441;-61
2024/03/30 07:03:14;;;;;;;27.40;5.20;;;21.20;35.90;;;;;;5013594;28;20459;-60
2024/03/30 07:05:40;;;;;;;24.37;5.07;;;21.10;35.10;;;;;;5013484;28;20433;-59
2024/03/30 07:08:06;;;;;;;19.67;4.80;;;21.20;36.00;;;;;;5012933;28;20451;-61
2024/03/30 07:10:31;;;;;;;17.37;4.60;;;21.30;36.20;;;;;;5012866;28;20512;-61
2024/03/30 07:12:57;;;;;;;23.73;4.43;;;21.30;35.90;;;;;;5013441;28;20182;-57
2024/03/30 07:15:22;;;;;;;35.73;5.27;;;21.40;35.70;;;;;;5013060;28;20194;-58
2024/03/30 07:17:48;;;;;;;25.40;4.87;;;21.40;35.30;;;;;;5012755;28;20209;-57
2024/03/30 07:20:14;;;;;;;27.10;5.40;;;21.40;34.40;;;;;;5012205;28;20186;-58
2024/03/30 07:22:40;;;;;;;26.53;4.37;;;21.40;33.80;;;;;;5013635;28;21110;-57
2024/03/30 07:25:06;;;;;;;25.70;4.37;;;21.40;33.70;;;;;;5011259;28;20491;-60
2024/03/30 07:27:31;;;;;;;28.23;5.60;;;21.40;34.00;;;;;;5012771;28;20690;-62
2024/03/30 07:29:57;;;;;;;29.83;6.40;;;21.40;33.10;;;;;;5012080;28;20228;-58
2024/03/30 07:32:22;;;;;;;26.10;7.50;;;21.20;33.90;;;;;;5013469;28;20182;-60
2024/03/30 07:34:49;;;;;;;30.57;10.10;;;21.10;34.50;;;;;;5012234;28;20664;-60
2024/03/30 07:37:15;;;;;;;27.63;6.77;;;20.80;33.90;;;;;;5011807;28;20272;-60
2024/03/30 07:39:41;;;;;;;28.73;6.77;;;20.70;34.50;;;;;;5012179;28;20924;-59
2024/03/30 07:42:08;;;;;;;26.90;5.60;;;20.60;35.40;;;;;;5012813;28;20189;-58
2024/03/30 07:44:34;;;;;;;27.67;5.07;;;20.50;35.70;;;;;;5012748;28;20467;-58
2024/03/30 07:47:00;;;;;;;28.53;4.87;;;20.40;36.30;;;;;;5012284;28;20468;-62
2024/03/30 07:49:25;;;;;;;24.83;6.20;;;20.40;36.00;;;;;;5012394;28;20962;-61
2024/03/30 07:51:51;;;;;;;26.30;4.77;;;20.40;36.60;;;;;;5013541;28;20597;-60
2024/03/30 07:54:17;;;;;;;18.67;4.33;;;20.50;36.40;;;;;;5012210;28;20194;-58
2024/03/30 07:56:52;;;;;;;24.97;5.20;;;20.70;36.40;;;;;;5011934;28;20245;-60
2024/03/30 07:59:18;;;;;;;26.80;5.13;;;20.80;35.80;;;;;;5012045;28;20731;-58
2024/03/30 08:01:44;;;;;;;17.33;4.10;;;20.90;35.60;;;;;;5008370;28;20449;-61
2024/03/30 08:04:09;;;;;;;27.70;5.07;;;21.00;35.90;;;;;;5011866;28;20190;-57
2024/03/30 08:06:35;;;;;;;26.83;4.70;;;21.20;36.00;;;;;;5012232;28;20204;-59
2024/03/30 08:09:00;;;;;;;26.73;5.47;;;21.30;36.20;;;;;;5011269;28;20251;-60
2024/03/30 08:11:26;;;;;;;19.93;4.17;;;21.00;36.90;;;;;;5012756;28;20200;-57
2024/03/30 08:13:51;;;;;;;21.43;4.57;;;20.80;37.70;;;;;;5011719;28;20182;-61
2024/03/30 08:16:17;;;;;;;20.57;5.37;;;21.00;38.30;;;;;;5012316;28;20222;-59
2024/03/30 08:18:42;;;;;;;23.23;5.77;;;21.00;38.50;;;;;;5010952;28;20181;-61
2024/03/30 08:21:08;;;;;;;34.30;7.87;;;21.10;38.60;;;;;;5011419;28;20186;-66
2024/03/30 08:23:33;;;;;;;28.77;5.93;;;21.10;38.80;;;;;;5012020;28;20196;-56
2024/03/30 08:25:59;;;;;;;17.83;6.33;;;21.10;38.60;;;;;;5011932;28;20186;-60
2024/03/30 08:28:24;;;;;;;31.10;6.27;;;21.10;38.30;;;;;;5011524;28;20292;-63
2024/03/30 08:30:50;;;;;;;17.40;5.00;;;21.10;38.60;;;;;;5011431;28;20178;-60
2024/03/30 08:33:16;;;;;;;25.47;4.77;;;21.10;38.70;;;;;;5012186;28;20329;-60
2024/03/30 08:35:54;;;;;;;20.30;5.27;;;21.10;38.70;;;;;;5010603;28;20182;-59
2024/03/30 08:38:20;;;;;;;23.37;8.47;;;21.20;38.90;;;;;;5011756;28;20448;-60
2024/03/30 08:40:46;;;;;;;27.37;6.80;;;21.10;38.60;;;;;;5010817;28;20421;-61
2024/03/30 08:43:12;;;;;;;26.83;6.03;;;21.20;38.80;;;;;;5011893;28;20487;-60
2024/03/30 08:45:37;;;;;;;16.03;4.70;;;21.30;38.70;;;;;;5011623;28;20432;-59
2024/03/30 08:48:03;;;;;;;19.90;5.13;;;21.30;38.60;;;;;;5010973;28;20230;-61
2024/03/30 08:50:29;;;;;;;18.57;5.53;;;21.40;38.70;;;;;;5011005;28;20185;-62
2024/03/30 08:52:55;;;;;;;18.20;6.03;;;21.50;38.60;;;;;;5011591;28;20456;-60
2024/03/30 08:55:20;;;;;;;15.73;5.10;;;21.50;38.50;;;;;;5010459;28;20444;-62
2024/03/30 08:57:46;;;;;;;21.40;6.07;;;21.60;38.50;;;;;;5011009;28;20476;-59
2024/03/30 09:00:12;;;;;;;26.37;6.87;;;21.60;38.50;;;;;;5009431;28;20573;-56
2024/03/30 09:02:41;;;;;;;26.70;4.30;;;21.60;38.20;;;;;;5011935;28;20177;-59
2024/03/30 09:05:06;;;;;;;25.97;7.33;;;21.60;38.10;;;;;;5010708;28;20182;-61
2024/03/30 09:07:32;;;;;;;23.00;8.60;;;21.70;38.70;;;;;;5011380;28;20445;-59
2024/03/30 09:09:58;;;;;;;42.23;8.00;;;21.70;39.00;;;;;;5010148;28;20573;-59
2024/03/30 09:12:23;;;;;;;29.73;9.60;;;21.70;39.10;;;;;;5011832;28;20213;-58
2024/03/30 09:14:49;;;;;;;24.27;6.53;;;21.70;39.10;;;;;;5010347;28;20268;-60
2024/03/30 09:17:15;;;;;;;30.63;6.30;;;21.60;40.10;;;;;;5010587;28;20740;-60
2024/03/30 09:19:41;;;;;;;24.43;5.33;;;21.60;41.00;;;;;;5009499;28;20433;-63
2024/03/30 09:22:07;;;;;;;19.63;4.43;;;21.60;41.90;;;;;;5011138;28;20193;-64
2024/03/30 09:24:32;;;;;;;31.40;5.60;;;21.50;42.40;;;;;;5011019;28;20275;-59
2024/03/30 09:26:58;;;;;;;23.13;5.60;;;21.40;42.40;;;;;;5010433;28;20201;-57
2024/03/30 09:29:24;;;;;;;20.83;4.70;;;21.40;41.40;;;;;;5010145;28;20181;-57
2024/03/30 09:31:49;;;;;;;23.53;4.73;;;21.40;41.30;;;;;;5011094;28;20182;-60
2024/03/30 09:34:15;;;;;;;19.20;4.73;;;21.40;41.00;;;;;;5010189;28;20645;-63
2024/03/30 09:36:40;;;;;;;27.40;6.50;;;21.50;41.30;;;;;;5010660;28;20214;-57
2024/03/30 09:39:06;;;;;;;30.57;5.63;;;21.50;42.10;;;;;;5009902;28;20260;-56
2024/03/30 09:41:48;;;;;;;23.13;5.87;;;21.50;43.10;;;;;;5010777;28;20685;-59
2024/03/30 09:44:14;;;;;;;22.67;7.00;;;21.50;43.30;;;;;;5010290;28;20193;-59
2024/03/30 09:46:41;;;;;;;22.93;8.30;;;21.50;42.70;;;;;;5010017;28;20464;-61
2024/03/30 09:49:09;;;;;;;25.80;5.93;;;21.50;42.10;;;;;;5012288;28;20264;-63
2024/03/30 09:51:36;;;;;;;26.77;6.40;;;21.50;41.90;;;;;;5015328;28;20947;-58
2024/03/30 09:54:02;;;;;;;28.47;6.17;;;21.50;42.00;;;;;;5013653;28;20551;-60
2024/03/30 09:56:30;;;;;;;25.87;5.90;;;21.50;42.30;;;;;;5014461;28;20488;-58
2024/03/30 09:58:59;;;;;;;42.07;5.97;;;21.50;42.20;;;;;;5013662;28;20409;-62
2024/03/30 10:01:24;;;;;;;22.80;5.20;;;21.50;41.70;;;;;;5015051;28;20430;-58
2024/03/30 10:03:50;;;;;;;23.30;5.60;;;21.50;41.70;;;;;;5013890;28;20917;-61
2024/03/30 10:06:27;;;;;;;24.47;7.03;;;21.50;41.60;;;;;;5014079;28;20610;-60
2024/03/30 10:08:58;;;;;;;20.20;5.80;;;21.60;42.10;;;;;;5007356;28;20193;-56
2024/03/30 10:11:26;;;;;;;17.07;5.50;;;21.50;42.50;;;;;;5015040;28;20983;-63
2024/03/30 10:13:59;;;;;;;29.03;6.10;;;21.50;42.80;;;;;;5013830;28;20852;-59
2024/03/30 10:16:24;;;;;;;18.80;6.47;;;21.50;42.60;;;;;;5014267;28;20475;-56
2024/03/30 10:18:51;;;;;;;23.63;7.57;;;21.50;41.60;;;;;;5013033;28;20425;-64
2024/03/30 10:21:18;;;;;;;24.87;7.33;;;21.40;41.10;;;;;;5014193;28;20190;-61
2024/03/30 10:23:46;;;;;;;26.13;5.57;;;21.50;41.80;;;;;;5013806;28;20420;-61
2024/03/30 10:26:17;;;;;;;23.30;5.70;;;21.50;42.00;;;;;;5013767;28;20420;-57
2024/03/30 10:28:43;;;;;;;27.10;7.20;;;21.50;41.10;;;;;;5012827;28;20443;-57
2024/03/30 10:31:09;;;;;;;27.60;5.90;;;21.40;40.60;;;;;;5014151;28;20437;-55
2024/03/30 10:33:35;;;;;;;15.43;5.57;;;21.50;41.10;;;;;;5014304;28;20478;-57
2024/03/30 10:36:01;;;;;;;22.57;5.90;;;21.50;41.70;;;;;;5013793;28;20886;-59
2024/03/30 10:38:30;;;;;;;28.27;5.50;;;21.60;42.20;;;;;;5013341;28;20206;-64
2024/03/30 10:40:56;;;;;;;29.00;6.33;;;21.60;42.90;;;;;;5012870;28;20421;-63
2024/03/30 10:43:21;;;;;;;29.17;6.53;;;21.60;43.00;;;;;;5014157;28;20409;-59
2024/03/30 10:45:47;;;;;;;25.37;7.53;;;21.70;43.00;;;;;;5013285;28;20220;-57
2024/03/30 10:48:13;;;;;;;24.50;5.43;;;21.70;42.70;;;;;;5013411;28;20202;-57
2024/03/30 10:50:39;;;;;;;25.33;7.73;;;21.80;42.40;;;;;;5012966;28;21091;-60
2024/03/30 10:53:07;;;;;;;23.90;6.07;;;21.80;42.30;;;;;;5013849;28;20197;-60
2024/03/30 10:55:37;;;;;;;23.23;5.00;;;21.90;42.70;;;;;;5013409;28;20182;-59
2024/03/30 10:58:03;;;;;;;27.30;6.57;;;22.00;43.30;;;;;;5012990;28;20460;-61
2024/03/30 11:00:29;;;;;;;22.10;5.23;;;21.90;43.80;;;;;;5012630;28;20445;-60
2024/03/30 11:02:57;;;;;;;23.80;6.37;;;21.90;43.80;;;;;;5013672;28;20604;-59
2024/03/30 11:05:26;;;;;;;22.37;6.80;;;22.10;43.90;;;;;;5013308;28;20433;-60
2024/03/30 11:07:52;;;;;;;30.60;6.90;;;22.20;43.90;;;;;;5012870;28;20528;-59
2024/03/30 11:10:18;;;;;;;21.83;5.60;;;22.30;43.70;;;;;;5012981;28;20444;-56
2024/03/30 11:12:44;;;;;;;26.10;6.10;;;22.30;43.10;;;;;;5013692;28;20417;-58
2024/03/30 11:15:09;;;;;;;25.07;7.90;;;22.40;42.80;;;;;;5012863;28;20567;-58
2024/03/30 11:17:42;;;;;;;18.90;6.77;;;22.50;42.50;;;;;;5013072;28;20523;-57
2024/03/30 11:20:14;;;;;;;37.60;9.80;;;22.50;42.20;;;;;;5012509;28;20271;-63
2024/03/30 11:22:55;;;;;;;29.60;7.07;;;22.60;42.60;;;;;;5012665;28;20426;-58
2024/03/30 11:25:29;;;;;;;22.80;6.70;;;22.70;43.40;;;;;;5013031;28;20413;-57
2024/03/30 11:28:16;;;;;;;21.10;6.30;;;22.80;43.30;;;;;;5012251;28;20436;-60
2024/03/30 11:30:59;;;;;;;35.33;7.90;;;22.90;43.00;;;;;;5011614;28;20432;-59
2024/03/30 11:33:43;;;;;;;13.77;6.93;;;23.00;42.80;;;;;;5013180;28;20425;-59
2024/03/30 11:36:29;;;;;;;23.93;6.40;;;23.00;43.10;;;;;;5012133;28;20562;-61
2024/03/30 11:39:07;;;;;;;23.13;7.37;;;23.10;44.10;;;;;;5007584;28;21138;-56
2024/03/30 11:41:34;;;;;;;25.10;6.27;;;23.10;43.40;;;;;;5013543;28;20555;-64
2024/03/30 11:44:11;;;;;;;16.37;5.70;;;23.20;43.20;;;;;;5012158;28;20806;-57
2024/03/30 11:46:39;;;;;;;21.57;5.80;;;23.30;43.30;;;;;;5012604;28;20550;-58
2024/03/30 11:49:06;;;;;;;21.63;6.40;;;23.30;42.00;;;;;;5011642;28;20421;-61
2024/03/30 11:51:37;;;;;;;19.27;6.20;;;23.30;44.20;;;;;;5012940;28;20429;-58
2024/03/30 11:54:18;;;;;;;31.60;7.13;;;23.40;45.60;;;;;;5012191;28;20476;-62
2024/03/30 11:56:52;;;;;;;25.43;7.07;;;23.40;45.60;;;;;;5011699;28;20472;-61
2024/03/30 11:59:18;;;;;;;23.27;6.93;;;23.40;46.00;;;;;;5011590;28;20424;-59
2024/03/30 12:01:43;;;;;;;25.90;7.20;;;23.30;46.40;;;;;;5012310;28;20433;-60
2024/03/30 12:04:09;;;;;;;28.10;7.70;;;23.30;46.30;;;;;;5011794;28;20193;-61
2024/03/30 12:06:35;;;;;;;30.70;9.40;;;23.20;46.10;;;;;;5012245;28;20232;-62
2024/03/30 12:09:00;;;;;;;24.60;10.37;;;23.20;44.70;;;;;;5011125;28;20460;-57
2024/03/30 12:11:26;;;;;;;33.73;10.80;;;23.20;44.20;;;;;;5011802;28;20316;-58
2024/03/30 12:13:53;;;;;;;28.00;9.90;;;23.20;43.80;;;;;;5011983;28;20178;-58
2024/03/30 12:16:19;;;;;;;31.70;10.70;;;23.20;43.50;;;;;;5011717;28;20253;-61
2024/03/30 12:18:44;;;;;;;32.40;10.70;;;23.20;43.50;;;;;;5003662;28;20468;-57
2024/03/30 12:21:11;;;;;;;41.03;16.00;;;23.20;43.10;;;;;;5011639;28;20483;-58
2024/03/30 12:23:37;;;;;;;31.33;12.53;;;23.20;43.20;;;;;;5011964;28;20243;-58
2024/03/30 12:26:04;;;;;;;29.03;10.50;;;23.20;43.10;;;;;;5011457;28;21031;-63
2024/03/30 12:28:30;;;;;;;28.23;9.73;;;23.20;43.20;;;;;;5010931;28;20790;-60
2024/03/30 12:30:56;;;;;;;31.97;8.77;;;23.20;43.20;;;;;;5011228;28;20421;-59
2024/03/30 12:33:25;;;;;;;26.23;8.17;;;23.20;43.20;;;;;;5011949;28;20428;-60
2024/03/30 12:35:51;;;;;;;35.33;7.87;;;23.20;43.00;;;;;;5010999;28;20588;-57
2024/03/30 12:38:18;;;;;;;37.60;8.80;;;23.20;43.00;;;;;;5010898;28;20506;-60
2024/03/30 12:40:45;;;;;;;34.93;9.77;;;23.20;43.30;;;;;;5010048;28;20417;-63